Belfry, Kentucky
Current Conditions -  °F | °C
As of 3:55 AM on Saturday 22 Nov 2014 (Local Time) from KPBX Reporting Station
Clear Clear  
Wind Chill: 25°   Ceiling: Unl
Heat Index: 30°   Visibility: 10mi
Dew Point: 14°   Wind: 5mph
Humidity: 51%   Direction: 170°S
Pressure: 30.36"   Gusts: NA
Location:  37.62°N, 82.27°W
Report Text: KPBX 220855Z AUTO 17004KT 10SM CLR M01/M10 A3036 RMK AO2 T10101100
Loading
Personal Weather Stations






























Interactive Weather Map New forecast layout! Learn more

10-Day Weather Forecast

Advertisements
Track Severe Weather on mobile